createdAt,value
2018-01-03T17:22:20.883Z,9.38
2018-01-03T17:23:21.139Z,9.25
2018-01-03T17:24:31.006Z,9.19
2018-01-03T17:25:32.576Z,9.06
2018-01-03T17:26:31.208Z,9
2018-01-03T17:27:31.824Z,8.94
2018-01-03T17:28:30.708Z,8.88
2018-01-03T17:29:31.162Z,8.81
2018-01-03T17:30:31.671Z,8.88
2018-01-03T17:31:30.965Z,8.75
2018-01-03T17:32:31.398Z,8.75
2018-01-03T17:33:32.329Z,8.81
2018-01-03T17:34:32.295Z,8.69
2018-01-03T17:35:49.452Z,8.75
2018-01-03T17:36:49.892Z,8.63
2018-01-03T17:37:49.290Z,8.56
2018-01-03T17:38:53.425Z,8.56
2018-01-03T17:39:49.848Z,8.5
2018-01-03T17:40:49.144Z,8.5
2018-01-03T17:41:49.572Z,8.5
2018-01-03T17:42:49.809Z,8.44
2018-01-03T17:43:49.990Z,8.44
2018-01-03T17:44:49.551Z,8.44
2018-01-03T17:45:49.937Z,8.44
2018-01-03T17:46:49.692Z,8.44
2018-01-03T17:47:49.932Z,8.44
2018-01-03T17:48:49.344Z,8.44
2018-01-03T17:49:49.696Z,8.44
2018-01-03T17:50:49.890Z,8.44
2018-01-03T17:51:49.143Z,8.44
2018-01-03T17:52:50.421Z,8.38
2018-01-03T17:53:49.704Z,8.44
2018-01-03T17:54:49.995Z,8.38
2018-01-03T17:55:49.430Z,8.44
2018-01-03T17:56:49.895Z,8.44
2018-01-03T17:57:49.335Z,8.38
2018-01-03T17:58:49.669Z,8.44
2018-01-03T17:59:50.076Z,8.44
2018-01-03T18:00:49.334Z,8.44
2018-01-03T18:01:49.616Z,8.44
2018-01-03T18:02:49.979Z,8.44
2018-01-03T18:03:49.358Z,8.44
2018-01-03T18:04:49.918Z,8.44
2018-01-03T18:05:49.266Z,8.44
2018-01-03T18:06:49.379Z,8.44
2018-01-03T18:07:49.590Z,8.44
2018-01-03T18:08:50.109Z,8.44
2018-01-03T18:09:49.351Z,8.44
2018-01-03T18:10:49.501Z,8.44
2018-01-03T18:11:49.698Z,8.44
2018-01-03T18:12:49.918Z,8.44
2018-01-03T18:13:50.216Z,8.44
2018-01-03T18:14:49.695Z,8.44
2018-01-03T18:15:50.028Z,8.44
2018-01-03T18:16:49.477Z,8.44
2018-01-03T18:17:49.671Z,8.44
2018-01-03T18:18:49.883Z,8.44
2018-01-03T18:19:49.539Z,8.44
2018-01-03T18:20:49.931Z,8.44
2018-01-03T18:21:50.164Z,8.44
2018-01-03T18:22:49.390Z,8.44
2018-01-03T18:23:49.734Z,8.44
2018-01-03T18:24:49.922Z,8.44
2018-01-03T18:25:50.373Z,8.44
2018-01-03T18:26:49.826Z,8.44
2018-01-03T18:27:50.289Z,8.5
2018-01-03T18:28:49.801Z,8.44
2018-01-03T18:29:50.320Z,8.44
2018-01-03T18:30:49.940Z,8.44
2018-01-03T18:31:50.324Z,8.44
2018-01-03T18:32:49.982Z,8.44
2018-01-03T18:33:50.295Z,8.44
2018-01-03T18:34:49.595Z,8.44
2018-01-03T18:35:49.895Z,8.44
2018-01-03T18:36:49.220Z,8.5
2018-01-03T18:37:49.725Z,8.5
2018-01-03T18:38:48.959Z,8.44
2018-01-03T18:39:49.404Z,8.44
2018-01-03T18:40:49.132Z,8.44
2018-01-03T18:41:49.510Z,8.5
2018-01-03T18:42:49.975Z,8.44
2018-01-03T18:43:49.468Z,8.5
2018-01-03T18:44:49.872Z,8.44
2018-01-03T18:45:49.286Z,8.5
2018-01-03T18:46:50.025Z,8.5
2018-01-03T18:47:49.595Z,8.5
2018-01-03T18:48:49.095Z,8.5
2018-01-03T18:49:49.599Z,8.5
2018-01-03T18:50:49.821Z,8.5
2018-01-03T18:51:49.508Z,8.5
2018-01-03T18:52:35.823Z,8.63
2018-01-03T18:53:35.714Z,8.56
2018-01-03T18:54:35.296Z,8.5
2018-01-03T18:55:35.858Z,8.5
2018-01-03T18:56:35.501Z,8.5
2018-01-03T18:57:36.341Z,8.56
2018-01-03T18:58:35.846Z,8.56
2018-01-03T18:59:35.432Z,8.56
2018-01-03T19:00:36.137Z,8.56
2018-01-03T19:01:35.601Z,8.56
2018-01-03T19:02:35.852Z,8.63
2018-01-03T19:03:36.225Z,8.56
2018-01-03T19:04:35.801Z,8.63
2018-01-03T19:05:35.494Z,8.63
2018-01-03T19:06:36.648Z,8.63
2018-01-03T19:07:35.978Z,8.69
2018-01-03T19:08:35.363Z,8.63
2018-01-03T19:09:35.945Z,8.63
2018-01-03T19:10:35.848Z,8.69
2018-01-03T19:11:35.830Z,8.63
2018-01-03T19:12:35.261Z,8.63
2018-01-03T19:13:36.237Z,8.63
2018-01-03T19:14:35.925Z,8.63
2018-01-03T19:15:35.964Z,8.63
2018-01-03T19:16:36.960Z,8.63
2018-01-03T19:17:35.383Z,8.56
2018-01-03T19:18:35.756Z,8.63
2018-01-03T19:19:35.350Z,8.63
2018-01-03T19:20:36.049Z,8.63
2018-01-03T19:21:35.659Z,8.63
2018-01-03T19:22:35.249Z,8.63
2018-01-03T19:23:36.105Z,8.56
2018-01-03T19:24:37.107Z,8.56
2018-01-03T19:25:35.719Z,8.5
2018-01-03T19:26:35.085Z,8.44
2018-01-03T19:27:35.510Z,8.5
2018-01-03T19:28:37.443Z,8.38
2018-01-03T19:29:36.023Z,8.38
2018-01-03T19:30:37.436Z,8.38
2018-01-03T19:31:35.534Z,8.31
2018-01-03T19:32:36.556Z,8.38
2018-01-03T19:33:36.147Z,8.31
2018-01-03T19:34:36.549Z,8.31
2018-01-03T19:35:36.701Z,8.31
2018-01-03T19:36:35.145Z,8.38
2018-01-03T19:37:35.800Z,8.25
2018-01-03T19:38:35.921Z,8.31
2018-01-03T19:39:36.646Z,8.25
2018-01-03T19:40:35.143Z,8.25
2018-01-03T19:41:36.413Z,8.25
2018-01-03T19:42:36.974Z,8.19
2018-01-03T19:43:35.319Z,8.25
2018-01-03T19:44:35.707Z,8.25
2018-01-03T19:45:36.924Z,8.25
2018-01-03T19:46:35.862Z,8.19
2018-01-03T19:47:35.917Z,8.19
2018-01-03T19:48:35.607Z,8.25
2018-01-03T19:49:36.370Z,8.19
2018-01-03T19:50:36.319Z,8.25
2018-01-03T19:51:36.498Z,8.25
2018-01-03T19:52:36.312Z,8.25
2018-01-03T19:53:36.006Z,8.19
2018-01-03T19:54:35.728Z,8.19
2018-01-03T19:55:35.603Z,8.19
2018-01-03T19:56:35.924Z,8.13
2018-01-03T19:57:35.534Z,8.19
2018-01-03T19:58:35.369Z,8.19
2018-01-03T19:59:35.839Z,8.19
2018-01-03T20:00:35.226Z,8.19
2018-01-03T20:01:35.756Z,8.19
2018-01-03T20:02:35.318Z,8.25
2018-01-03T20:03:36.039Z,8.25
2018-01-03T20:04:35.791Z,8.19
2018-01-03T20:05:35.315Z,8.25
2018-01-03T20:06:36.030Z,8.25
2018-01-03T20:07:35.409Z,8.25
2018-01-03T20:08:36.008Z,8.31
2018-01-03T20:09:36.672Z,8.25
2018-01-03T20:10:35.797Z,8.31
2018-01-03T20:11:35.510Z,8.25
2018-01-03T20:12:36.246Z,8.31
2018-01-03T20:13:35.656Z,8.31
2018-01-03T20:14:35.206Z,8.31
2018-01-03T20:14:54.835Z,8.38
2018-01-03T20:15:54.607Z,8.31
2018-01-03T20:16:55.247Z,8.31
2018-01-03T20:17:55.515Z,8.38
2018-01-03T20:18:56.491Z,8.31
2018-01-03T20:19:58.104Z,8.38
2018-01-03T20:20:56.370Z,8.38
2018-01-03T20:21:57.620Z,8.38
2018-01-03T20:22:56.832Z,8.38
2018-01-03T20:23:54.724Z,8.38
2018-01-03T20:24:55.362Z,8.44
2018-01-03T20:25:56.327Z,8.38
2018-01-03T20:26:54.935Z,8.44
2018-01-03T20:27:56.584Z,8.38
2018-01-03T20:28:55.302Z,8.38
2018-01-03T20:29:55.337Z,8.38
2018-01-03T20:30:54.718Z,8.38
2018-01-03T20:31:30.383Z,8.44
2018-01-03T20:32:31.002Z,8.38
2018-01-03T20:33:30.771Z,8.38
2018-01-03T20:34:30.650Z,8.44
2018-01-03T20:35:30.037Z,8.38
2018-01-03T20:36:30.789Z,8.44
2018-01-03T20:37:30.154Z,8.44
2018-01-03T20:38:30.686Z,8.44
2018-01-03T20:39:31.012Z,8.44
2018-01-03T20:40:31.296Z,8.38
2018-01-03T20:41:30.342Z,8.44
2018-01-03T20:42:33.200Z,8.44
2018-01-03T20:43:30.876Z,8.44
2018-01-03T20:44:30.953Z,8.38
2018-01-03T20:45:31.440Z,8.44
2018-01-03T20:46:30.821Z,8.44
2018-01-03T20:47:32.634Z,8.44
2018-01-03T20:48:30.616Z,8.38
2018-01-03T20:49:30.132Z,8.38
2018-01-03T20:50:30.417Z,8.44
2018-01-03T20:51:31.110Z,8.31
2018-01-03T20:52:30.887Z,8.44
2018-01-03T20:53:30.624Z,8.38
2018-01-03T20:54:30.382Z,8.38
2018-01-03T20:55:31.133Z,8.38
2018-01-03T20:56:31.022Z,8.38
2018-01-03T20:57:30.755Z,8.38
2018-01-03T20:58:30.301Z,8.38
2018-01-03T20:59:30.934Z,8.44
2018-01-03T21:00:30.406Z,8.44
2018-01-03T21:01:31.467Z,8.44
2018-01-03T21:02:30.359Z,8.38
2018-01-03T21:03:31.087Z,8.44
2018-01-03T21:04:30.343Z,8.44
2018-01-03T21:05:30.836Z,8.44
2018-01-03T21:06:30.366Z,8.44
2018-01-03T21:07:31.601Z,8.44
2018-01-03T21:08:06.211Z,8.5
2018-01-03T21:08:28.727Z,8.5
2018-01-03T21:09:28.556Z,8.44
2018-01-03T21:10:28.326Z,8.44
2018-01-03T21:11:33.508Z,8.5
2018-01-03T21:12:30.802Z,8.5
2018-01-03T21:13:28.314Z,8.56
2018-01-03T21:14:30.123Z,8.56
2018-01-03T21:15:30.808Z,8.56
2018-01-03T21:16:28.433Z,8.56
2018-01-03T21:17:28.833Z,8.56
2018-01-03T21:18:29.008Z,8.56
2018-01-03T21:19:28.626Z,8.56
2018-01-03T21:20:31.069Z,8.5
2018-01-03T21:21:31.222Z,8.56
2018-01-03T21:22:28.844Z,8.56
2018-01-03T21:23:29.299Z,8.56
2018-01-03T21:24:29.014Z,8.56
2018-01-03T21:25:29.879Z,8.63
2018-01-03T21:26:29.562Z,8.56
2018-01-03T21:27:30.499Z,8.63
2018-01-03T21:28:29.321Z,8.56
2018-01-03T21:29:28.399Z,8.63
2018-01-03T21:30:29.822Z,8.56
2018-01-03T21:31:28.418Z,8.56
2018-01-03T21:32:28.844Z,8.5
2018-01-03T21:33:28.372Z,8.5
2018-01-03T21:34:28.387Z,8.5
2018-01-03T21:35:28.645Z,8.44
2018-01-03T21:36:28.728Z,8.44
2018-01-03T21:37:28.952Z,8.44
2018-01-03T21:38:28.541Z,8.44
2018-01-03T21:39:29.349Z,8.38
2018-01-03T21:40:36.228Z,8.38
2018-01-03T21:41:32.873Z,8.31
2018-01-03T21:42:29.121Z,8.31
2018-01-03T21:43:29.572Z,8.38
2018-01-03T21:44:30.445Z,8.31
2018-01-03T21:45:30.265Z,8.31
2018-01-03T21:46:30.267Z,8.19
2018-01-03T21:47:30.837Z,8.19
2018-01-03T21:48:28.549Z,8.19
2018-01-03T21:49:28.894Z,8.13
2018-01-03T21:50:30.257Z,8.13
2018-01-03T21:51:29.036Z,8.06
2018-01-03T21:52:29.337Z,8.13
2018-01-03T21:53:29.049Z,8.06
2018-01-03T21:54:28.308Z,8.06
2018-01-03T21:55:32.451Z,8.06
2018-01-03T21:56:30.192Z,8.06
2018-01-03T21:57:28.851Z,8
2018-01-03T21:59:33.423Z,8.06
2018-01-03T22:00:28.773Z,8
2018-01-03T22:01:28.871Z,8
2018-01-03T22:02:32.858Z,8
2018-01-03T22:03:35.985Z,8
2018-01-03T22:04:32.708Z,8
2018-01-03T22:05:31.376Z,8
2018-01-03T22:06:28.575Z,8
2018-01-03T22:07:30.502Z,8
2018-01-03T22:08:30.136Z,8
2018-01-03T22:09:28.624Z,8
2018-01-03T22:10:30.319Z,7.94
2018-01-03T22:11:30.300Z,7.94
2018-01-03T22:12:29.194Z,7.94
2018-01-03T22:13:33.194Z,7.94
2018-01-03T22:14:28.611Z,7.94
2018-01-03T22:15:28.813Z,7.94
2018-01-03T22:16:31.277Z,7.94
2018-01-03T22:17:29.407Z,7.94
2018-01-03T22:18:29.727Z,7.94
2018-01-03T22:19:29.553Z,8
2018-01-03T22:20:29.279Z,7.94
2018-01-03T22:21:28.497Z,7.94
2018-01-03T22:22:29.210Z,7.94
2018-01-03T22:23:28.952Z,7.94
2018-01-03T22:24:29.519Z,7.94
2018-01-03T22:25:28.808Z,7.94
2018-01-03T22:26:29.438Z,7.94
2018-01-03T22:27:29.188Z,7.87
2018-01-03T22:28:29.098Z,7.94
2018-01-03T22:29:29.412Z,7.81
2018-01-03T22:30:30.696Z,7.87
2018-01-03T22:31:28.926Z,7.75
2018-01-03T22:32:29.754Z,7.81
2018-01-03T22:33:29.328Z,7.75
2018-01-03T22:34:29.533Z,7.75
2018-01-03T22:35:31.483Z,7.75
2018-01-03T22:36:29.198Z,7.75
2018-01-03T22:37:28.676Z,7.69
2018-01-03T22:38:29.174Z,7.69
2018-01-03T22:39:29.327Z,7.69
2018-01-03T22:40:29.336Z,7.69
2018-01-03T22:41:28.998Z,7.69
2018-01-03T22:42:29.579Z,7.69
2018-01-03T22:43:30.128Z,7.62
2018-01-03T22:44:29.283Z,7.69
2018-01-03T22:45:28.640Z,7.62
2018-01-03T22:46:29.976Z,7.62
2018-01-03T22:47:30.332Z,7.62
2018-01-03T22:48:28.837Z,7.62
2018-01-03T22:49:29.228Z,7.62
2018-01-03T22:50:32.841Z,7.69
2018-01-03T22:51:29.594Z,7.69
2018-01-03T22:52:29.689Z,7.69
2018-01-03T22:53:29.170Z,7.69
2018-01-03T22:54:29.646Z,7.69
2018-01-03T22:55:29.244Z,7.75
2018-01-03T22:56:28.884Z,7.75
2018-01-03T22:57:29.634Z,7.75
2018-01-03T22:58:28.944Z,7.75
2018-01-03T22:59:29.440Z,7.81
2018-01-03T23:00:29.006Z,7.81
2018-01-03T23:01:29.851Z,7.75
2018-01-03T23:02:29.699Z,7.81
2018-01-03T23:03:29.839Z,7.81
2018-01-03T23:04:29.065Z,7.81
2018-01-03T23:05:29.695Z,7.81
2018-01-03T23:06:29.613Z,7.81
2018-01-03T23:07:28.885Z,7.81
2018-01-03T23:08:29.231Z,7.87
2018-01-03T23:09:28.649Z,7.81
2018-01-03T23:10:29.666Z,7.81
2018-01-03T23:11:28.848Z,7.81
2018-01-03T23:12:29.158Z,7.81
2018-01-03T23:13:29.919Z,7.81
2018-01-03T23:14:29.206Z,7.81
2018-01-03T23:15:29.782Z,7.81
2018-01-03T23:16:29.064Z,7.81
2018-01-03T23:17:30.294Z,7.75
2018-01-03T23:18:28.655Z,7.81
2018-01-03T23:19:31.528Z,7.75
2018-01-03T23:20:30.693Z,7.81
2018-01-03T23:21:28.931Z,7.75
2018-01-03T23:22:29.532Z,7.75
2018-01-03T23:23:30.108Z,7.75
2018-01-03T23:24:30.069Z,7.75
2018-01-03T23:25:29.716Z,7.75
2018-01-03T23:26:30.047Z,7.69
2018-01-03T23:27:29.588Z,7.69
2018-01-03T23:28:29.098Z,7.69
2018-01-03T23:29:30.055Z,7.62
2018-01-03T23:30:29.423Z,7.62
2018-01-03T23:31:29.991Z,7.62
2018-01-03T23:32:29.356Z,7.62
2018-01-03T23:33:29.631Z,7.56
2018-01-03T23:34:30.026Z,7.56
2018-01-03T23:35:30.059Z,7.56
2018-01-03T23:36:29.563Z,7.56
2018-01-03T23:37:30.120Z,7.56
2018-01-03T23:38:29.128Z,7.56
2018-01-03T23:39:29.944Z,7.56
2018-01-03T23:40:29.625Z,7.56
2018-01-03T23:41:29.766Z,7.56
2018-01-03T23:42:30.309Z,7.56
2018-01-03T23:43:29.793Z,7.56
2018-01-03T23:44:29.223Z,7.62
2018-01-03T23:45:30.007Z,7.62
2018-01-03T23:46:29.508Z,7.56
2018-01-03T23:47:29.474Z,7.62
2018-01-03T23:48:29.172Z,7.62
2018-01-03T23:49:28.950Z,7.62
2018-01-03T23:50:29.429Z,7.62
2018-01-03T23:51:29.016Z,7.62
2018-01-03T23:52:29.993Z,7.62
2018-01-03T23:53:29.542Z,7.62
2018-01-03T23:54:29.549Z,7.69
2018-01-03T23:55:29.046Z,7.69
2018-01-03T23:56:29.824Z,7.69
2018-01-03T23:57:30.341Z,7.69
2018-01-03T23:58:28.943Z,7.69
2018-01-03T23:59:14.924Z,7.75
